createdAt,value
2023-05-09T00:00:33.536Z,20.97
2023-05-09T00:03:01.725Z,19.17
2023-05-09T00:05:30.624Z,20.67
2023-05-09T00:08:03.529Z,18.77
2023-05-09T00:10:31.965Z,20.52
2023-05-09T00:13:03.246Z,18.53
2023-05-09T00:15:34.440Z,19.70
2023-05-09T00:18:09.460Z,19.25
2023-05-09T00:20:38.492Z,20.52
2023-05-09T00:23:07.832Z,16.65
2023-05-09T00:25:37.501Z,16.20
2023-05-09T00:28:10.895Z,19.15
2023-05-09T00:30:39.765Z,19.33
2023-05-09T00:33:09.559Z,16.30
2023-05-09T00:35:41.450Z,16.25
2023-05-09T00:38:13.062Z,14.67
2023-05-09T00:40:48.876Z,15.23
2023-05-09T00:43:17.287Z,17.13
2023-05-09T00:45:50.462Z,20.08
2023-05-09T00:48:18.283Z,17.10
2023-05-09T00:50:52.542Z,16.30
2023-05-09T00:53:23.255Z,16.65
2023-05-09T00:55:58.444Z,15.10
2023-05-09T00:58:27.081Z,18.02
2023-05-09T01:00:56.194Z,21.65
2023-05-09T01:03:24.777Z,21.27
2023-05-09T01:06:06.286Z,19.08
2023-05-09T01:08:49.277Z,21.15
2023-05-09T01:11:24.446Z,19.70
2023-05-09T01:14:01.313Z,19.42
2023-05-09T01:16:35.970Z,21.37
2023-05-09T01:19:26.103Z,23.55
2023-05-09T01:22:04.687Z,22.80
2023-05-09T01:24:40.362Z,27.42
2023-05-09T01:27:35.250Z,22.08
2023-05-09T01:30:05.450Z,20.30
2023-05-09T01:32:35.392Z,20.20
2023-05-09T01:35:05.023Z,23.90
2023-05-09T01:37:34.102Z,21.30
2023-05-09T01:40:09.449Z,20.70
2023-05-09T01:42:45.362Z,19.17
2023-05-09T01:45:14.711Z,19.95
2023-05-09T01:47:48.143Z,22.15
2023-05-09T01:50:20.502Z,19.67
2023-05-09T01:52:53.096Z,20.75
2023-05-09T01:55:24.925Z,20.57
2023-05-09T01:57:57.081Z,19.52
2023-05-09T02:00:25.763Z,21.92
2023-05-09T02:02:54.101Z,21.23
2023-05-09T02:05:32.323Z,21.60
2023-05-09T02:07:59.922Z,21.63
2023-05-09T02:10:31.230Z,23.05
2023-05-09T02:13:00.125Z,23.40
2023-05-09T02:15:30.982Z,23.83
2023-05-09T02:17:58.652Z,22.92
2023-05-09T02:20:26.265Z,22.27
2023-05-09T02:22:53.839Z,23.17
2023-05-09T02:25:24.565Z,22.10
2023-05-09T02:27:57.215Z,20.70
2023-05-09T02:30:27.378Z,22.10
2023-05-09T02:32:59.599Z,22.37
2023-05-09T02:35:30.210Z,21.98
2023-05-09T02:38:01.079Z,24.83
2023-05-09T02:40:35.080Z,23.15
2023-05-09T02:43:06.087Z,22.83
2023-05-09T02:45:40.282Z,21.23
2023-05-09T02:48:11.416Z,26.80
2023-05-09T02:50:48.250Z,24.73
2023-05-09T02:53:18.801Z,25.30
2023-05-09T02:55:46.323Z,25.42
2023-05-09T02:58:14.993Z,25.90
2023-05-09T03:00:48.946Z,27.13
2023-05-09T03:03:22.961Z,32.67
2023-05-09T03:05:51.515Z,26.95
2023-05-09T03:08:22.805Z,32.50
2023-05-09T03:10:51.563Z,27.27
2023-05-09T03:13:18.856Z,30.35
2023-05-09T03:15:48.132Z,29.65
2023-05-09T03:18:20.072Z,27.02
2023-05-09T03:20:50.620Z,33.78
2023-05-09T03:23:19.432Z,27.03
2023-05-09T03:25:54.261Z,27.15
2023-05-09T03:28:22.868Z,25.88
2023-05-09T03:30:57.268Z,26.77
2023-05-09T03:33:38.446Z,20.50
2023-05-09T03:36:08.623Z,19.47
2023-05-09T03:38:39.211Z,19.33
2023-05-09T03:41:06.664Z,17.20
2023-05-09T03:43:35.056Z,15.75
2023-05-09T03:46:08.662Z,16.15
2023-05-09T03:48:38.559Z,16.07
2023-05-09T03:51:11.483Z,13.70
2023-05-09T03:53:41.787Z,15.45
2023-05-09T03:56:14.063Z,14.77
2023-05-09T03:58:57.013Z,17.35
2023-05-09T04:01:35.542Z,14.53
2023-05-09T04:04:20.189Z,16.52
2023-05-09T04:06:47.848Z,15.27
2023-05-09T04:09:36.858Z,15.07
2023-05-09T04:12:13.030Z,16.63
2023-05-09T04:14:54.393Z,16.83
2023-05-09T04:17:28.118Z,16.63
2023-05-09T04:22:48.653Z,18.83
2023-05-09T04:25:24.717Z,18.38
2023-05-09T04:28:02.790Z,18.67
2023-05-09T04:30:44.750Z,16.20
2023-05-09T04:33:38.278Z,17.00
2023-05-09T04:36:19.675Z,18.70
2023-05-09T04:38:58.513Z,15.60
2023-05-09T04:41:34.778Z,15.47
2023-05-09T04:44:28.973Z,16.20
2023-05-09T04:47:12.939Z,15.27
2023-05-09T04:49:44.380Z,15.15
2023-05-09T04:52:24.036Z,18.83
2023-05-09T04:55:00.980Z,17.00
2023-05-09T04:57:40.857Z,18.23
2023-05-09T05:00:21.619Z,20.65
2023-05-09T05:03:01.499Z,17.60
2023-05-09T05:05:37.256Z,17.80
2023-05-09T05:08:17.348Z,18.80
2023-05-09T05:16:21.272Z,20.42
2023-05-09T05:18:59.956Z,20.20
2023-05-09T05:21:27.942Z,17.83
2023-05-09T05:23:59.337Z,20.42
2023-05-09T05:26:36.415Z,19.75
2023-05-09T05:29:18.662Z,18.60
2023-05-09T05:31:49.132Z,18.08
2023-05-09T05:34:23.736Z,19.07
2023-05-09T05:36:53.626Z,18.25
2023-05-09T05:39:27.827Z,18.63
2023-05-09T05:41:56.753Z,20.23
2023-05-09T05:44:40.207Z,21.45
2023-05-09T05:47:10.290Z,20.47
2023-05-09T05:49:50.570Z,17.17
2023-05-09T05:52:47.193Z,18.42
2023-05-09T05:55:36.448Z,19.17
2023-05-09T05:58:07.018Z,17.10
2023-05-09T06:00:51.979Z,17.50
2023-05-09T06:03:35.554Z,15.23
2023-05-09T06:06:19.310Z,13.77
2023-05-09T06:09:00.381Z,14.20
2023-05-09T06:11:41.660Z,13.77
2023-05-09T06:14:14.897Z,12.13
2023-05-09T06:17:01.358Z,11.93
2023-05-09T06:19:53.354Z,11.63
2023-05-09T06:22:26.318Z,11.00
2023-05-09T06:24:54.147Z,11.05
2023-05-09T06:27:41.101Z,10.37
2023-05-09T06:30:24.738Z,9.90
2023-05-09T06:32:58.898Z,11.77
2023-05-09T06:35:35.655Z,13.75
2023-05-09T06:38:08.623Z,12.00
2023-05-09T06:40:38.186Z,11.00
2023-05-09T06:43:05.661Z,9.77
2023-05-09T06:45:33.079Z,10.98
2023-05-09T06:48:13.976Z,9.55
2023-05-09T06:50:52.152Z,10.35
2023-05-09T06:53:27.517Z,11.63
2023-05-09T06:56:58.914Z,9.82
2023-05-09T06:59:41.571Z,9.88
2023-05-09T07:02:25.689Z,10.10
2023-05-09T07:05:10.703Z,11.50
2023-05-09T07:08:05.185Z,10.37
2023-05-09T07:10:45.761Z,11.48
2023-05-09T07:13:28.606Z,10.70
2023-05-09T07:16:18.868Z,11.98
2023-05-09T07:19:03.971Z,13.80
2023-05-09T07:21:49.846Z,12.10
2023-05-09T07:24:56.245Z,14.63
2023-05-09T07:27:34.957Z,11.55
2023-05-09T07:30:18.489Z,18.73
2023-05-09T07:32:49.238Z,13.43
2023-05-09T07:35:34.975Z,11.57
2023-05-09T07:38:25.761Z,12.07
2023-05-09T07:41:16.952Z,10.82
2023-05-09T07:44:24.349Z,12.30
2023-05-09T07:47:37.573Z,13.00
2023-05-09T07:50:21.275Z,11.57
2023-05-09T07:52:53.135Z,11.30
2023-05-09T08:04:55.780Z,11.07
2023-05-09T08:10:37.535Z,11.85
2023-05-09T08:13:57.281Z,12.15
2023-05-09T08:16:48.391Z,12.52
2023-05-09T08:19:24.491Z,10.03
2023-05-09T08:21:52.132Z,10.75
2023-05-09T08:24:22.819Z,10.85
2023-05-09T08:27:09.558Z,10.35
2023-05-09T08:29:37.117Z,9.05
2023-05-09T08:32:12.728Z,13.63
2023-05-09T08:34:41.810Z,11.85
2023-05-09T08:37:33.128Z,11.65
2023-05-09T08:40:24.611Z,13.65
2023-05-09T08:43:09.524Z,12.52
2023-05-09T08:45:44.730Z,10.63
2023-05-09T08:48:25.620Z,12.68
2023-05-09T08:50:59.421Z,9.57
2023-05-09T08:53:31.624Z,12.63
2023-05-09T08:56:11.663Z,14.80
2023-05-09T08:59:11.276Z,9.43
2023-05-09T09:02:01.109Z,10.32
2023-05-09T09:05:06.808Z,12.55
2023-05-09T09:07:56.600Z,9.32
2023-05-09T09:10:50.406Z,9.10
2023-05-09T09:13:42.050Z,12.40
2023-05-09T09:16:16.721Z,11.77
2023-05-09T09:18:54.280Z,11.40
2023-05-09T09:21:25.433Z,10.65
2023-05-09T09:23:58.249Z,11.32
2023-05-09T09:26:29.766Z,11.40
2023-05-09T09:29:04.200Z,12.40
2023-05-09T09:31:34.975Z,10.32
2023-05-09T09:34:09.901Z,13.88
2023-05-09T09:36:47.320Z,13.57
2023-05-09T09:39:28.420Z,12.90
2023-05-09T09:42:01.697Z,10.75
2023-05-09T09:44:34.426Z,12.43
2023-05-09T09:47:31.462Z,13.20
2023-05-09T09:50:19.885Z,10.90
2023-05-09T09:52:53.389Z,12.13
2023-05-09T09:55:24.978Z,15.52
2023-05-09T09:58:00.655Z,10.93
2023-05-09T10:00:33.075Z,13.23
2023-05-09T10:03:03.646Z,12.30
2023-05-09T10:05:39.766Z,11.23
2023-05-09T10:08:15.309Z,12.30
2023-05-09T10:10:43.060Z,10.63
2023-05-09T10:13:15.798Z,17.02
2023-05-09T10:15:53.062Z,13.38
2023-05-09T10:18:27.179Z,11.67
2023-05-09T10:21:04.786Z,11.13
2023-05-09T10:23:40.788Z,11.02
2023-05-09T10:26:20.846Z,11.73
2023-05-09T10:29:03.196Z,10.73
2023-05-09T10:31:34.954Z,12.03
2023-05-09T10:34:10.050Z,13.60
2023-05-09T10:36:50.194Z,13.27
2023-05-09T10:39:20.939Z,12.35
2023-05-09T10:41:52.246Z,12.00
2023-05-09T10:44:32.056Z,11.33
2023-05-09T10:47:07.606Z,13.35
2023-05-09T10:49:38.117Z,12.30
2023-05-09T10:52:12.138Z,10.05
2023-05-09T10:54:41.334Z,10.20
2023-05-09T10:57:21.019Z,11.33
2023-05-09T11:00:07.830Z,11.70
2023-05-09T11:03:02.518Z,12.48
2023-05-09T11:05:45.645Z,10.98
2023-05-09T11:08:29.666Z,12.88
2023-05-09T11:11:00.456Z,15.80
2023-05-09T11:13:39.693Z,14.45
2023-05-09T11:16:17.158Z,14.10
2023-05-09T11:19:19.446Z,15.15
2023-05-09T11:22:11.087Z,13.25
2023-05-09T11:24:55.739Z,14.03
2023-05-09T11:27:28.691Z,16.50
2023-05-09T11:30:21.006Z,12.02
2023-05-09T11:33:02.328Z,13.55
2023-05-09T11:35:30.008Z,12.52
2023-05-09T11:38:04.868Z,11.73
2023-05-09T11:40:44.315Z,14.82
2023-05-09T11:43:28.026Z,12.48
2023-05-09T11:45:58.679Z,12.13
2023-05-09T11:48:28.715Z,11.00
2023-05-09T11:51:03.775Z,11.60
2023-05-09T11:53:31.406Z,15.15
2023-05-09T11:56:05.306Z,11.55
2023-05-09T11:58:32.731Z,13.55
2023-05-09T12:01:01.378Z,10.77
2023-05-09T12:03:31.877Z,15.57
2023-05-09T12:06:04.968Z,10.50
2023-05-09T12:08:39.977Z,12.02
2023-05-09T12:11:12.401Z,12.50
2023-05-09T12:13:47.316Z,11.95
2023-05-09T12:16:15.689Z,14.77
2023-05-09T12:18:47.877Z,13.93
2023-05-09T12:21:17.860Z,13.52
2023-05-09T12:23:56.317Z,10.93
2023-05-09T12:26:24.188Z,10.45
2023-05-09T12:28:52.341Z,12.83
2023-05-09T12:31:19.987Z,12.80
2023-05-09T12:33:47.980Z,11.52
2023-05-09T12:36:16.436Z,13.30
2023-05-09T12:38:54.651Z,11.55
2023-05-09T12:41:39.079Z,11.00
2023-05-09T12:44:23.355Z,10.52
2023-05-09T12:47:21.778Z,13.25
2023-05-09T12:49:53.190Z,11.55
2023-05-09T12:52:21.024Z,13.13
2023-05-09T12:55:12.931Z,12.77
2023-05-09T12:58:20.591Z,11.63
2023-05-09T13:00:59.748Z,13.10
2023-05-09T13:03:34.361Z,13.70
2023-05-09T13:06:11.603Z,12.55
2023-05-09T13:08:57.795Z,11.80
2023-05-09T13:11:36.479Z,13.60
2023-05-09T13:14:04.784Z,14.63
2023-05-09T13:16:58.027Z,13.52
2023-05-09T13:19:33.888Z,11.75
2023-05-09T13:22:21.771Z,12.70
2023-05-09T13:24:49.772Z,11.60
2023-05-09T13:27:17.042Z,13.52
2023-05-09T13:29:47.437Z,11.98
2023-05-09T13:32:15.254Z,14.80
2023-05-09T13:34:45.227Z,14.67
2023-05-09T13:37:12.601Z,17.42
2023-05-09T13:39:41.933Z,14.57
2023-05-09T13:42:12.821Z,13.52
2023-05-09T13:44:40.278Z,18.90
2023-05-09T13:47:08.293Z,14.37
2023-05-09T13:49:35.704Z,16.20
2023-05-09T13:52:04.565Z,13.75
2023-05-09T13:54:40.459Z,14.38
2023-05-09T13:57:09.567Z,13.05
2023-05-09T13:59:37.216Z,12.90
2023-05-09T14:02:10.699Z,11.68
2023-05-09T14:04:41.908Z,12.15
2023-05-09T14:07:13.038Z,12.35
2023-05-09T14:09:51.959Z,15.82
2023-05-09T14:12:33.159Z,14.10
2023-05-09T14:15:08.653Z,13.30
2023-05-09T14:17:55.550Z,12.35
2023-05-09T14:20:40.632Z,14.25
2023-05-09T14:23:21.028Z,13.40
2023-05-09T14:25:57.530Z,14.70
2023-05-09T14:28:31.513Z,11.68
2023-05-09T14:31:13.415Z,15.00
2023-05-09T14:33:53.123Z,12.82
2023-05-09T14:36:28.375Z,12.10
2023-05-09T14:39:00.939Z,11.93
2023-05-09T14:41:32.311Z,12.30
2023-05-09T14:44:00.168Z,14.25
2023-05-09T14:46:32.154Z,13.10
2023-05-09T14:49:04.720Z,12.90
2023-05-09T14:51:37.008Z,12.07
2023-05-09T14:54:09.285Z,15.90
2023-05-09T14:56:37.255Z,11.43
2023-05-09T14:59:04.796Z,12.20
2023-05-09T15:01:35.583Z,13.93
2023-05-09T15:04:07.483Z,11.93
2023-05-09T15:06:48.972Z,14.43
2023-05-09T15:09:22.858Z,11.98
2023-05-09T15:11:50.548Z,11.80
2023-05-09T15:14:17.947Z,13.00
2023-05-09T15:16:47.767Z,14.13
2023-05-09T15:19:21.339Z,17.67
2023-05-09T15:21:55.623Z,15.38
2023-05-09T15:24:27.599Z,13.13
2023-05-09T15:26:55.224Z,13.35
2023-05-09T15:29:27.800Z,14.47
2023-05-09T15:31:58.290Z,12.95
2023-05-09T15:34:28.070Z,13.48
2023-05-09T15:37:00.815Z,14.82
2023-05-09T15:39:34.384Z,14.00
2023-05-09T15:42:04.681Z,15.50
2023-05-09T15:44:41.139Z,14.15
2023-05-09T15:47:13.633Z,14.25
2023-05-09T15:49:41.303Z,14.18
2023-05-09T15:52:14.521Z,15.82
2023-05-09T15:54:41.903Z,14.87
2023-05-09T15:57:17.918Z,12.27
2023-05-09T15:59:45.491Z,11.45
2023-05-09T16:02:14.293Z,11.30
2023-05-09T16:04:46.526Z,14.88
2023-05-09T16:07:16.981Z,15.90
2023-05-09T16:09:47.038Z,13.82
2023-05-09T16:12:17.778Z,14.05
2023-05-09T16:14:46.213Z,15.45
2023-05-09T16:17:16.829Z,17.83
2023-05-09T16:19:45.943Z,12.83
2023-05-09T16:22:17.189Z,12.80
2023-05-09T16:24:50.062Z,12.48
2023-05-09T16:27:18.243Z,14.07
2023-05-09T16:29:57.996Z,13.65
2023-05-09T16:32:58.796Z,13.30
2023-05-09T16:35:40.002Z,15.07
2023-05-09T16:38:30.140Z,13.32
2023-05-09T16:41:16.712Z,14.02
2023-05-09T16:43:49.725Z,12.65
2023-05-09T16:49:35.806Z,14.30
2023-05-09T16:52:14.607Z,14.48
2023-05-09T16:55:30.297Z,14.13
2023-05-09T16:58:03.271Z,16.33
2023-05-09T17:00:38.726Z,13.70
2023-05-09T17:03:20.891Z,13.07
2023-05-09T17:06:25.770Z,13.40
2023-05-09T17:12:20.266Z,12.35
2023-05-09T17:14:50.677Z,12.93
2023-05-09T17:17:19.821Z,12.70
2023-05-09T17:20:07.922Z,12.57
2023-05-09T17:22:39.284Z,11.93
2023-05-09T17:25:12.864Z,12.30
2023-05-09T17:27:55.317Z,13.73
2023-05-09T17:30:34.013Z,16.45
2023-05-09T17:33:22.668Z,11.80
2023-05-09T17:36:00.786Z,12.85
2023-05-09T17:38:34.130Z,12.50
2023-05-09T17:41:14.817Z,12.80
2023-05-09T17:43:49.202Z,13.18
2023-05-09T17:46:35.740Z,15.27
2023-05-09T17:49:19.544Z,16.00
2023-05-09T17:52:04.287Z,17.67
2023-05-09T17:54:40.031Z,16.73
2023-05-09T17:57:11.386Z,19.00
2023-05-09T17:59:47.963Z,17.70
2023-05-09T18:02:20.015Z,20.58
2023-05-09T18:04:50.911Z,17.02
2023-05-09T18:07:19.212Z,16.40
2023-05-09T18:09:50.484Z,18.27
2023-05-09T18:12:22.017Z,23.88
2023-05-09T18:14:53.242Z,18.58
2023-05-09T18:17:26.507Z,17.88
2023-05-09T18:19:54.018Z,20.33
2023-05-09T18:22:45.944Z,17.80
2023-05-09T18:25:26.359Z,17.80
2023-05-09T18:28:07.397Z,18.48
2023-05-09T18:30:38.198Z,18.55
2023-05-09T18:33:09.661Z,18.70
2023-05-09T18:35:38.962Z,17.15
2023-05-09T18:38:06.310Z,16.60
2023-05-09T18:40:34.921Z,17.63
2023-05-09T18:43:05.542Z,17.67
2023-05-09T18:45:34.136Z,17.30
2023-05-09T18:48:07.015Z,19.27
2023-05-09T18:50:38.392Z,17.48
2023-05-09T18:53:05.920Z,19.10
2023-05-09T18:55:33.277Z,20.15
2023-05-09T18:58:09.647Z,25.23
2023-05-09T19:00:45.288Z,17.90
2023-05-09T19:03:14.998Z,19.38
2023-05-09T19:05:44.392Z,19.80
2023-05-09T19:08:11.702Z,18.52
2023-05-09T19:10:41.832Z,16.87
2023-05-09T19:13:10.298Z,17.55
2023-05-09T19:15:37.778Z,18.48
2023-05-09T19:18:05.270Z,19.48
2023-05-09T19:20:33.907Z,22.83
2023-05-09T19:23:03.637Z,21.70
2023-05-09T19:25:34.706Z,20.95
2023-05-09T19:28:02.127Z,21.40
2023-05-09T19:30:29.648Z,20.25
2023-05-09T19:32:59.861Z,25.98
2023-05-09T19:35:30.206Z,17.93
2023-05-09T19:37:58.740Z,19.52
2023-05-09T19:40:26.224Z,21.50
2023-05-09T19:42:54.433Z,22.52
2023-05-09T19:45:24.167Z,20.23
2023-05-09T19:47:52.775Z,18.90
2023-05-09T19:50:21.554Z,21.02
2023-05-09T19:52:49.134Z,16.85
2023-05-09T19:55:16.783Z,21.67
2023-05-09T19:57:44.318Z,18.58
2023-05-09T20:00:17.122Z,17.43
2023-05-09T20:02:44.593Z,19.95
2023-05-09T20:05:12.007Z,20.45
2023-05-09T20:07:39.638Z,25.45
2023-05-09T20:10:06.984Z,20.15
2023-05-09T20:12:35.432Z,18.93
2023-05-09T20:15:02.794Z,21.23
2023-05-09T20:17:30.141Z,20.80
2023-05-09T20:19:58.149Z,20.92
2023-05-09T20:22:28.485Z,19.20
2023-05-09T20:24:55.726Z,21.90
2023-05-09T20:27:23.950Z,19.52
2023-05-09T20:32:41.830Z,20.30
2023-05-09T20:35:12.619Z,16.25
2023-05-09T20:37:41.764Z,17.17
2023-05-09T20:40:10.334Z,18.23
2023-05-09T20:42:38.435Z,17.45
2023-05-09T20:45:06.229Z,19.52
2023-05-09T20:47:33.716Z,15.23
2023-05-09T20:50:01.044Z,17.67
2023-05-09T20:52:31.945Z,21.17
2023-05-09T20:54:59.792Z,17.25
2023-05-09T20:57:27.225Z,17.20
2023-05-09T20:59:54.622Z,16.88
2023-05-09T21:02:22.245Z,19.53
2023-05-09T21:04:49.593Z,17.33
2023-05-09T21:07:19.839Z,16.40
2023-05-09T21:09:48.032Z,17.70
2023-05-09T21:12:21.262Z,19.23
2023-05-09T21:14:49.304Z,19.50
2023-05-09T21:17:18.756Z,17.83
2023-05-09T21:19:46.411Z,18.05
2023-05-09T21:22:16.580Z,17.48
2023-05-09T21:24:43.985Z,19.73
2023-05-09T21:27:12.999Z,21.53
2023-05-09T21:29:40.430Z,19.48
2023-05-09T21:32:07.720Z,20.15
2023-05-09T21:34:34.888Z,17.33
2023-05-09T21:37:09.692Z,15.48
2023-05-09T21:39:36.905Z,19.80
2023-05-09T21:42:07.403Z,15.77
2023-05-09T21:44:34.759Z,15.32
2023-05-09T21:47:02.235Z,17.65
2023-05-09T21:49:29.793Z,18.38
2023-05-09T21:51:57.092Z,15.40
2023-05-09T21:54:24.352Z,15.82
2023-05-09T21:56:51.619Z,18.58
2023-05-09T21:59:22.572Z,18.10
2023-05-09T22:01:53.385Z,19.58
2023-05-09T22:04:23.439Z,16.03
2023-05-09T22:06:50.659Z,17.02
2023-05-09T22:09:25.953Z,18.33
2023-05-09T22:11:53.953Z,16.05
2023-05-09T22:14:24.236Z,14.68
2023-05-09T22:16:52.474Z,16.50
2023-05-09T22:19:22.383Z,15.98
2023-05-09T22:21:52.244Z,18.83
2023-05-09T22:24:21.807Z,17.33
2023-05-09T22:26:56.198Z,16.30
2023-05-09T22:29:23.545Z,17.27
2023-05-09T22:31:54.003Z,15.95
2023-05-09T22:34:21.356Z,18.77
2023-05-09T22:36:48.709Z,17.83
2023-05-09T22:39:15.981Z,14.88
2023-05-09T22:41:43.448Z,15.13
2023-05-09T22:44:13.543Z,16.35
2023-05-09T22:46:46.802Z,17.80
2023-05-09T22:49:15.925Z,15.35
2023-05-09T22:51:50.361Z,16.73
2023-05-09T22:54:24.481Z,17.17
2023-05-09T22:56:53.884Z,16.92
2023-05-09T22:59:22.196Z,17.80
2023-05-09T23:01:49.998Z,18.75
2023-05-09T23:04:18.331Z,18.85
2023-05-09T23:06:47.863Z,15.50
2023-05-09T23:09:17.606Z,15.38
2023-05-09T23:11:46.140Z,14.65
2023-05-09T23:14:14.201Z,14.68
2023-05-09T23:17:02.857Z,14.32
2023-05-09T23:19:32.245Z,14.17
2023-05-09T23:21:59.987Z,13.75
2023-05-09T23:24:33.039Z,16.92
2023-05-09T23:27:03.238Z,13.95
2023-05-09T23:29:30.605Z,13.23
2023-05-09T23:32:09.092Z,14.87
2023-05-09T23:34:37.265Z,13.00
2023-05-09T23:37:07.695Z,14.85
2023-05-09T23:39:35.675Z,18.13
2023-05-09T23:42:08.678Z,13.15
2023-05-09T23:44:37.106Z,15.57
2023-05-09T23:47:07.572Z,17.70
2023-05-09T23:49:43.503Z,14.20
2023-05-09T23:52:11.150Z,16.70
2023-05-09T23:54:40.191Z,13.15
2023-05-09T23:57:07.666Z,14.80
2023-05-09T23:59:35.006Z,14.30
